sensor_id;sensor_type;location;lat;lon;timestamp;temperature;humidity
28010;DHT22;15334;49.494;8.410;2023-09-19T00:02:15;17.60;99.90
28010;DHT22;15334;49.494;8.410;2023-09-19T00:04:43;17.60;99.90
28010;DHT22;15334;49.494;8.410;2023-09-19T00:07:11;17.60;99.90
28010;DHT22;15334;49.494;8.410;2023-09-19T00:09:40;17.50;99.90
28010;DHT22;15334;49.494;8.410;2023-09-19T00:12:10;17.50;99.90
28010;DHT22;15334;49.494;8.410;2023-09-19T00:14:40;17.50;99.90
28010;DHT22;15334;49.494;8.410;2023-09-19T00:17:08;17.50;99.90
28010;DHT22;15334;49.494;8.410;2023-09-19T00:19:37;17.40;99.90
28010;DHT22;15334;49.494;8.410;2023-09-19T00:22:05;17.40;99.90
28010;DHT22;15334;49.494;8.410;2023-09-19T00:24:34;17.50;99.90
28010;DHT22;15334;49.494;8.410;2023-09-19T00:27:02;17.40;99.90
28010;DHT22;15334;49.494;8.410;2023-09-19T00:29:30;17.40;99.90
28010;DHT22;15334;49.494;8.410;2023-09-19T00:31:59;17.30;99.90
28010;DHT22;15334;49.494;8.410;2023-09-19T00:34:27;17.30;99.90
28010;DHT22;15334;49.494;8.410;2023-09-19T00:36:57;17.20;99.90
28010;DHT22;15334;49.494;8.410;2023-09-19T00:39:26;17.10;99.90
28010;DHT22;15334;49.494;8.410;2023-09-19T00:41:58;17.10;99.90
28010;DHT22;15334;49.494;8.410;2023-09-19T00:44:31;17.10;99.90
28010;DHT22;15334;49.494;8.410;2023-09-19T00:47:01;17.00;99.90
28010;DHT22;15334;49.494;8.410;2023-09-19T00:49:30;16.90;99.90
28010;DHT22;15334;49.494;8.410;2023-09-19T00:52:01;16.80;99.90
28010;DHT22;15334;49.494;8.410;2023-09-19T00:54:31;16.70;99.90
28010;DHT22;15334;49.494;8.410;2023-09-19T00:57:00;16.70;99.90
28010;DHT22;15334;49.494;8.410;2023-09-19T00:59:28;16.60;99.90
28010;DHT22;15334;49.494;8.410;2023-09-19T01:01:58;16.60;99.90
28010;DHT22;15334;49.494;8.410;2023-09-19T01:04:27;16.50;99.90
28010;DHT22;15334;49.494;8.410;2023-09-19T01:06:55;16.50;99.90
28010;DHT22;15334;49.494;8.410;2023-09-19T01:09:25;16.50;99.90
28010;DHT22;15334;49.494;8.410;2023-09-19T01:11:59;16.50;99.90
28010;DHT22;15334;49.494;8.410;2023-09-19T01:14:34;16.50;99.90
28010;DHT22;15334;49.494;8.410;2023-09-19T01:17:13;16.60;99.90
28010;DHT22;15334;49.494;8.410;2023-09-19T01:20:11;16.70;99.90
28010;DHT22;15334;49.494;8.410;2023-09-19T01:22:52;16.80;99.90
28010;DHT22;15334;49.494;8.410;2023-09-19T01:25:42;16.80;99.90
28010;DHT22;15334;49.494;8.410;2023-09-19T01:28:30;16.90;99.90
28010;DHT22;15334;49.494;8.410;2023-09-19T01:31:10;16.90;99.90
28010;DHT22;15334;49.494;8.410;2023-09-19T01:33:58;17.00;99.90
28010;DHT22;15334;49.494;8.410;2023-09-19T01:36:28;17.10;99.90
28010;DHT22;15334;49.494;8.410;2023-09-19T01:38:57;17.00;99.90
28010;DHT22;15334;49.494;8.410;2023-09-19T01:41:36;17.00;99.90
28010;DHT22;15334;49.494;8.410;2023-09-19T01:44:09;17.10;99.90
28010;DHT22;15334;49.494;8.410;2023-09-19T01:46:41;17.10;99.90
28010;DHT22;15334;49.494;8.410;2023-09-19T01:49:18;17.10;99.90
28010;DHT22;15334;49.494;8.410;2023-09-19T01:51:59;17.10;99.90
28010;DHT22;15334;49.494;8.410;2023-09-19T01:54:33;17.10;99.90
28010;DHT22;15334;49.494;8.410;2023-09-19T01:57:09;17.10;99.90
28010;DHT22;15334;49.494;8.410;2023-09-19T01:59:43;17.10;99.90
28010;DHT22;15334;49.494;8.410;2023-09-19T02:02:15;17.10;99.90
28010;DHT22;15334;49.494;8.410;2023-09-19T02:04:45;17.10;99.90
28010;DHT22;15334;49.494;8.410;2023-09-19T02:07:13;17.20;99.90
28010;DHT22;15334;49.494;8.410;2023-09-19T02:09:43;17.20;99.90
28010;DHT22;15334;49.494;8.410;2023-09-19T02:12:11;17.30;99.90
28010;DHT22;15334;49.494;8.410;2023-09-19T02:14:40;17.30;99.90
28010;DHT22;15334;49.494;8.410;2023-09-19T02:17:08;17.30;99.90
28010;DHT22;15334;49.494;8.410;2023-09-19T02:19:39;17.30;99.90
28010;DHT22;15334;49.494;8.410;2023-09-19T02:22:08;17.30;99.90
28010;DHT22;15334;49.494;8.410;2023-09-19T02:24:37;17.30;99.90
28010;DHT22;15334;49.494;8.410;2023-09-19T02:27:05;17.30;99.90
28010;DHT22;15334;49.494;8.410;2023-09-19T02:29:34;17.30;99.90
28010;DHT22;15334;49.494;8.410;2023-09-19T02:32:02;17.20;99.90
28010;DHT22;15334;49.494;8.410;2023-09-19T02:34:31;17.20;99.90
28010;DHT22;15334;49.494;8.410;2023-09-19T02:37:01;17.30;99.90
28010;DHT22;15334;49.494;8.410;2023-09-19T02:39:31;17.20;99.90
28010;DHT22;15334;49.494;8.410;2023-09-19T02:42:01;17.30;99.90
28010;DHT22;15334;49.494;8.410;2023-09-19T02:44:30;17.20;99.90
28010;DHT22;15334;49.494;8.410;2023-09-19T02:46:59;17.30;99.90
28010;DHT22;15334;49.494;8.410;2023-09-19T02:49:27;17.30;99.90
28010;DHT22;15334;49.494;8.410;2023-09-19T02:51:56;17.40;99.90
28010;DHT22;15334;49.494;8.410;2023-09-19T02:54:26;17.40;99.90
28010;DHT22;15334;49.494;8.410;2023-09-19T02:56:55;17.40;99.90
28010;DHT22;15334;49.494;8.410;2023-09-19T02:59:23;17.40;99.90
28010;DHT22;15334;49.494;8.410;2023-09-19T03:01:51;17.40;99.90
28010;DHT22;15334;49.494;8.410;2023-09-19T03:04:21;17.40;99.90
28010;DHT22;15334;49.494;8.410;2023-09-19T03:06:49;17.30;99.90
28010;DHT22;15334;49.494;8.410;2023-09-19T03:09:18;17.40;99.90
28010;DHT22;15334;49.494;8.410;2023-09-19T03:11:47;17.40;99.90
28010;DHT22;15334;49.494;8.410;2023-09-19T03:14:16;17.40;99.90
28010;DHT22;15334;49.494;8.410;2023-09-19T03:16:46;17.40;99.90
28010;DHT22;15334;49.494;8.410;2023-09-19T03:19:15;17.40;99.90
28010;DHT22;15334;49.494;8.410;2023-09-19T03:21:43;17.50;99.90
28010;DHT22;15334;49.494;8.410;2023-09-19T03:24:11;17.40;99.90
28010;DHT22;15334;49.494;8.410;2023-09-19T03:26:39;17.40;99.90
28010;DHT22;15334;49.494;8.410;2023-09-19T03:29:08;17.40;99.90
28010;DHT22;15334;49.494;8.410;2023-09-19T03:31:37;17.30;99.90
28010;DHT22;15334;49.494;8.410;2023-09-19T03:34:06;17.30;99.90
28010;DHT22;15334;49.494;8.410;2023-09-19T03:36:35;17.40;99.90
28010;DHT22;15334;49.494;8.410;2023-09-19T03:39:03;17.40;99.90
28010;DHT22;15334;49.494;8.410;2023-09-19T03:41:32;17.40;99.90
28010;DHT22;15334;49.494;8.410;2023-09-19T03:44:03;17.40;99.90
28010;DHT22;15334;49.494;8.410;2023-09-19T03:46:32;17.40;99.90
28010;DHT22;15334;49.494;8.410;2023-09-19T03:49:03;17.30;99.90
28010;DHT22;15334;49.494;8.410;2023-09-19T03:51:31;17.30;99.90
28010;DHT22;15334;49.494;8.410;2023-09-19T03:54:01;17.30;99.90
28010;DHT22;15334;49.494;8.410;2023-09-19T03:56:29;17.30;99.90
28010;DHT22;15334;49.494;8.410;2023-09-19T03:58:58;17.30;99.90
28010;DHT22;15334;49.494;8.410;2023-09-19T04:01:25;17.20;99.90
28010;DHT22;15334;49.494;8.410;2023-09-19T04:03:56;17.10;99.90
28010;DHT22;15334;49.494;8.410;2023-09-19T04:06:24;17.00;99.90
28010;DHT22;15334;49.494;8.410;2023-09-19T04:09:11;16.90;99.90
28010;DHT22;15334;49.494;8.410;2023-09-19T04:11:40;16.90;99.90
28010;DHT22;15334;49.494;8.410;2023-09-19T04:14:08;16.80;99.90
28010;DHT22;15334;49.494;8.410;2023-09-19T04:16:36;16.70;99.90
28010;DHT22;15334;49.494;8.410;2023-09-19T04:19:06;16.70;99.90
28010;DHT22;15334;49.494;8.410;2023-09-19T04:21:34;16.60;99.90
28010;DHT22;15334;49.494;8.410;2023-09-19T04:24:02;16.60;99.90
28010;DHT22;15334;49.494;8.410;2023-09-19T04:26:31;16.50;99.90
28010;DHT22;15334;49.494;8.410;2023-09-19T04:28:59;16.50;99.90
28010;DHT22;15334;49.494;8.410;2023-09-19T04:31:27;16.50;99.90
28010;DHT22;15334;49.494;8.410;2023-09-19T04:33:56;16.40;99.90
28010;DHT22;15334;49.494;8.410;2023-09-19T04:36:27;16.40;99.90
28010;DHT22;15334;49.494;8.410;2023-09-19T04:39:02;16.40;99.90
28010;DHT22;15334;49.494;8.410;2023-09-19T04:41:34;16.30;99.90
28010;DHT22;15334;49.494;8.410;2023-09-19T04:44:04;16.20;99.90
28010;DHT22;15334;49.494;8.410;2023-09-19T04:46:32;16.20;99.90
28010;DHT22;15334;49.494;8.410;2023-09-19T04:49:00;16.10;99.90
28010;DHT22;15334;49.494;8.410;2023-09-19T04:51:30;16.10;99.90
28010;DHT22;15334;49.494;8.410;2023-09-19T04:54:01;16.20;99.90
28010;DHT22;15334;49.494;8.410;2023-09-19T04:56:29;16.10;99.90
28010;DHT22;15334;49.494;8.410;2023-09-19T04:58:58;16.10;99.90
28010;DHT22;15334;49.494;8.410;2023-09-19T05:01:27;16.00;99.90
28010;DHT22;15334;49.494;8.410;2023-09-19T05:03:55;15.90;99.90
28010;DHT22;15334;49.494;8.410;2023-09-19T05:06:23;15.90;99.90
28010;DHT22;15334;49.494;8.410;2023-09-19T05:08:54;16.00;99.90
28010;DHT22;15334;49.494;8.410;2023-09-19T05:11:22;16.00;99.90
28010;DHT22;15334;49.494;8.410;2023-09-19T05:13:51;16.00;99.90
28010;DHT22;15334;49.494;8.410;2023-09-19T05:16:20;16.00;99.90
28010;DHT22;15334;49.494;8.410;2023-09-19T05:18:49;16.00;99.90
28010;DHT22;15334;49.494;8.410;2023-09-19T05:21:17;15.90;99.90
28010;DHT22;15334;49.494;8.410;2023-09-19T05:23:45;15.90;99.90
28010;DHT22;15334;49.494;8.410;2023-09-19T05:26:15;16.00;99.90
28010;DHT22;15334;49.494;8.410;2023-09-19T05:28:43;16.10;99.90
28010;DHT22;15334;49.494;8.410;2023-09-19T05:31:11;16.00;99.90
28010;DHT22;15334;49.494;8.410;2023-09-19T05:33:41;16.10;99.90
28010;DHT22;15334;49.494;8.410;2023-09-19T05:36:09;16.20;99.90
28010;DHT22;15334;49.494;8.410;2023-09-19T05:38:38;16.20;99.90
28010;DHT22;15334;49.494;8.410;2023-09-19T05:41:08;16.20;99.90
28010;DHT22;15334;49.494;8.410;2023-09-19T05:43:42;16.30;99.90
28010;DHT22;15334;49.494;8.410;2023-09-19T05:46:10;16.30;99.90
28010;DHT22;15334;49.494;8.410;2023-09-19T05:48:38;16.30;99.90
28010;DHT22;15334;49.494;8.410;2023-09-19T05:51:08;16.30;99.90
28010;DHT22;15334;49.494;8.410;2023-09-19T05:53:36;16.30;99.90
28010;DHT22;15334;49.494;8.410;2023-09-19T05:56:05;16.40;99.90
28010;DHT22;15334;49.494;8.410;2023-09-19T05:58:33;16.40;99.90
28010;DHT22;15334;49.494;8.410;2023-09-19T06:01:02;16.40;99.90
28010;DHT22;15334;49.494;8.410;2023-09-19T06:03:30;16.40;99.90
28010;DHT22;15334;49.494;8.410;2023-09-19T06:05:58;16.50;99.90
28010;DHT22;15334;49.494;8.410;2023-09-19T06:08:26;16.50;99.90
28010;DHT22;15334;49.494;8.410;2023-09-19T06:10:55;16.50;99.90
28010;DHT22;15334;49.494;8.410;2023-09-19T06:13:23;16.50;99.90
28010;DHT22;15334;49.494;8.410;2023-09-19T06:15:54;16.60;99.90
28010;DHT22;15334;49.494;8.410;2023-09-19T06:18:24;16.70;99.90
28010;DHT22;15334;49.494;8.410;2023-09-19T06:20:53;16.70;99.90
28010;DHT22;15334;49.494;8.410;2023-09-19T06:23:22;16.80;99.90
28010;DHT22;15334;49.494;8.410;2023-09-19T06:25:51;16.80;99.90
28010;DHT22;15334;49.494;8.410;2023-09-19T06:28:20;16.90;99.90
28010;DHT22;15334;49.494;8.410;2023-09-19T06:30:50;17.00;99.90
28010;DHT22;15334;49.494;8.410;2023-09-19T06:33:18;17.00;99.90
28010;DHT22;15334;49.494;8.410;2023-09-19T06:35:49;17.10;99.90
28010;DHT22;15334;49.494;8.410;2023-09-19T06:38:20;17.10;99.90
28010;DHT22;15334;49.494;8.410;2023-09-19T06:40:48;17.10;99.90
28010;DHT22;15334;49.494;8.410;2023-09-19T06:43:16;17.20;99.90
28010;DHT22;15334;49.494;8.410;2023-09-19T06:45:45;17.20;99.90
28010;DHT22;15334;49.494;8.410;2023-09-19T06:48:13;17.20;99.90
28010;DHT22;15334;49.494;8.410;2023-09-19T06:50:42;17.10;99.90
28010;DHT22;15334;49.494;8.410;2023-09-19T06:53:12;17.10;99.90
28010;DHT22;15334;49.494;8.410;2023-09-19T06:55:40;17.10;99.90
28010;DHT22;15334;49.494;8.410;2023-09-19T06:58:10;17.10;99.90
28010;DHT22;15334;49.494;8.410;2023-09-19T07:00:38;17.10;99.90
28010;DHT22;15334;49.494;8.410;2023-09-19T07:03:07;17.20;99.90
28010;DHT22;15334;49.494;8.410;2023-09-19T07:05:39;17.20;99.90
28010;DHT22;15334;49.494;8.410;2023-09-19T07:08:08;17.30;99.90
28010;DHT22;15334;49.494;8.410;2023-09-19T07:10:41;17.30;99.90
28010;DHT22;15334;49.494;8.410;2023-09-19T07:13:15;17.40;99.90
28010;DHT22;15334;49.494;8.410;2023-09-19T07:15:44;17.50;99.90
28010;DHT22;15334;49.494;8.410;2023-09-19T07:18:15;17.60;99.90
28010;DHT22;15334;49.494;8.410;2023-09-19T07:20:44;17.60;99.90
28010;DHT22;15334;49.494;8.410;2023-09-19T07:23:16;17.70;99.90
28010;DHT22;15334;49.494;8.410;2023-09-19T07:25:46;17.70;99.90
28010;DHT22;15334;49.494;8.410;2023-09-19T07:28:15;17.80;99.90
28010;DHT22;15334;49.494;8.410;2023-09-19T07:30:43;17.90;99.90
28010;DHT22;15334;49.494;8.410;2023-09-19T07:33:11;17.90;99.90
28010;DHT22;15334;49.494;8.410;2023-09-19T07:35:40;17.90;99.90
28010;DHT22;15334;49.494;8.410;2023-09-19T07:38:08;18.00;99.90
28010;DHT22;15334;49.494;8.410;2023-09-19T07:40:38;18.10;99.90
28010;DHT22;15334;49.494;8.410;2023-09-19T07:43:07;18.10;99.90
28010;DHT22;15334;49.494;8.410;2023-09-19T07:45:35;18.10;99.90
28010;DHT22;15334;49.494;8.410;2023-09-19T07:48:04;18.20;99.90
28010;DHT22;15334;49.494;8.410;2023-09-19T07:50:40;18.30;99.90
28010;DHT22;15334;49.494;8.410;2023-09-19T07:53:10;18.50;99.90
28010;DHT22;15334;49.494;8.410;2023-09-19T07:55:40;18.50;99.90
28010;DHT22;15334;49.494;8.410;2023-09-19T07:58:10;18.50;99.90
28010;DHT22;15334;49.494;8.410;2023-09-19T08:00:39;18.60;99.90
28010;DHT22;15334;49.494;8.410;2023-09-19T08:03:07;18.60;99.90
28010;DHT22;15334;49.494;8.410;2023-09-19T08:05:44;18.70;99.90
28010;DHT22;15334;49.494;8.410;2023-09-19T08:08:13;18.70;99.90
28010;DHT22;15334;49.494;8.410;2023-09-19T08:10:42;18.80;99.90
28010;DHT22;15334;49.494;8.410;2023-09-19T08:13:14;18.90;99.90
28010;DHT22;15334;49.494;8.410;2023-09-19T08:15:44;18.90;99.90
28010;DHT22;15334;49.494;8.410;2023-09-19T08:18:13;19.00;99.90
28010;DHT22;15334;49.494;8.410;2023-09-19T08:20:41;19.00;99.90
28010;DHT22;15334;49.494;8.410;2023-09-19T08:23:13;19.00;99.90
28010;DHT22;15334;49.494;8.410;2023-09-19T08:25:41;19.00;99.90
28010;DHT22;15334;49.494;8.410;2023-09-19T08:28:09;19.00;99.90
28010;DHT22;15334;49.494;8.410;2023-09-19T08:30:42;18.90;99.90
28010;DHT22;15334;49.494;8.410;2023-09-19T08:33:10;18.90;99.90
28010;DHT22;15334;49.494;8.410;2023-09-19T08:35:38;18.90;99.90
28010;DHT22;15334;49.494;8.410;2023-09-19T08:38:08;18.90;99.90
28010;DHT22;15334;49.494;8.410;2023-09-19T08:40:37;18.80;99.90
28010;DHT22;15334;49.494;8.410;2023-09-19T08:43:07;18.80;99.90
28010;DHT22;15334;49.494;8.410;2023-09-19T08:45:35;18.90;99.90
28010;DHT22;15334;49.494;8.410;2023-09-19T08:48:16;19.00;99.90
28010;DHT22;15334;49.494;8.410;2023-09-19T08:50:49;19.00;99.90
28010;DHT22;15334;49.494;8.410;2023-09-19T08:53:23;19.00;99.90
28010;DHT22;15334;49.494;8.410;2023-09-19T08:55:54;19.00;99.90
28010;DHT22;15334;49.494;8.410;2023-09-19T08:58:27;19.00;99.90
28010;DHT22;15334;49.494;8.410;2023-09-19T09:00:58;19.00;99.90
28010;DHT22;15334;49.494;8.410;2023-09-19T09:03:33;19.10;99.90
28010;DHT22;15334;49.494;8.410;2023-09-19T09:06:02;19.10;99.90
28010;DHT22;15334;49.494;8.410;2023-09-19T09:08:31;18.90;99.90
28010;DHT22;15334;49.494;8.410;2023-09-19T09:10:59;18.90;99.90
28010;DHT22;15334;49.494;8.410;2023-09-19T09:13:28;19.00;99.90
28010;DHT22;15334;49.494;8.410;2023-09-19T09:15:56;19.10;99.90
28010;DHT22;15334;49.494;8.410;2023-09-19T09:18:26;19.10;99.90
28010;DHT22;15334;49.494;8.410;2023-09-19T09:21:12;19.00;99.90
28010;DHT22;15334;49.494;8.410;2023-09-19T09:24:00;19.10;99.90
28010;DHT22;15334;49.494;8.410;2023-09-19T09:26:45;19.20;99.90
28010;DHT22;15334;49.494;8.410;2023-09-19T09:29:14;19.20;99.90
28010;DHT22;15334;49.494;8.410;2023-09-19T09:31:47;19.30;99.90
28010;DHT22;15334;49.494;8.410;2023-09-19T09:34:16;19.30;99.90
28010;DHT22;15334;49.494;8.410;2023-09-19T09:36:48;19.30;99.90
28010;DHT22;15334;49.494;8.410;2023-09-19T09:39:30;19.40;99.90
28010;DHT22;15334;49.494;8.410;2023-09-19T09:41:59;19.40;99.90
28010;DHT22;15334;49.494;8.410;2023-09-19T09:44:27;19.30;99.90
28010;DHT22;15334;49.494;8.410;2023-09-19T09:46:58;19.30;99.90
28010;DHT22;15334;49.494;8.410;2023-09-19T09:49:48;19.40;99.90
28010;DHT22;15334;49.494;8.410;2023-09-19T09:52:23;19.50;99.90
28010;DHT22;15334;49.494;8.410;2023-09-19T09:54:59;19.60;99.90
28010;DHT22;15334;49.494;8.410;2023-09-19T09:57:28;19.70;99.90
28010;DHT22;15334;49.494;8.410;2023-09-19T09:59:57;19.80;99.90
28010;DHT22;15334;49.494;8.410;2023-09-19T10:02:42;20.00;99.90
28010;DHT22;15334;49.494;8.410;2023-09-19T10:05:15;20.10;99.90
28010;DHT22;15334;49.494;8.410;2023-09-19T10:07:51;20.20;99.90
28010;DHT22;15334;49.494;8.410;2023-09-19T10:10:38;20.20;99.90
28010;DHT22;15334;49.494;8.410;2023-09-19T10:13:20;20.30;99.90
28010;DHT22;15334;49.494;8.410;2023-09-19T10:15:51;20.40;99.90
28010;DHT22;15334;49.494;8.410;2023-09-19T10:18:22;20.40;99.90
28010;DHT22;15334;49.494;8.410;2023-09-19T10:20:51;20.40;99.90
28010;DHT22;15334;49.494;8.410;2023-09-19T10:23:21;20.30;99.90
28010;DHT22;15334;49.494;8.410;2023-09-19T10:25:51;20.10;99.90
28010;DHT22;15334;49.494;8.410;2023-09-19T10:28:21;20.10;99.90
28010;DHT22;15334;49.494;8.410;2023-09-19T10:30:51;20.20;99.90
28010;DHT22;15334;49.494;8.410;2023-09-19T10:33:21;20.30;99.90
28010;DHT22;15334;49.494;8.410;2023-09-19T10:35:51;20.50;99.90
28010;DHT22;15334;49.494;8.410;2023-09-19T10:38:24;20.60;99.90
28010;DHT22;15334;49.494;8.410;2023-09-19T10:40:53;20.60;99.90
28010;DHT22;15334;49.494;8.410;2023-09-19T10:43:25;20.60;99.90
28010;DHT22;15334;49.494;8.410;2023-09-19T10:45:54;20.60;99.90
28010;DHT22;15334;49.494;8.410;2023-09-19T10:48:25;20.60;99.90
28010;DHT22;15334;49.494;8.410;2023-09-19T10:51:01;20.90;99.90
28010;DHT22;15334;49.494;8.410;2023-09-19T10:53:45;20.80;99.90
28010;DHT22;15334;49.494;8.410;2023-09-19T10:56:19;21.00;99.90
28010;DHT22;15334;49.494;8.410;2023-09-19T10:58:49;21.20;99.90
28010;DHT22;15334;49.494;8.410;2023-09-19T11:01:18;21.30;99.90
28010;DHT22;15334;49.494;8.410;2023-09-19T11:03:47;21.30;99.90
28010;DHT22;15334;49.494;8.410;2023-09-19T11:06:19;21.30;99.90
28010;DHT22;15334;49.494;8.410;2023-09-19T11:09:02;21.50;99.90
28010;DHT22;15334;49.494;8.410;2023-09-19T11:11:46;21.60;99.90
28010;DHT22;15334;49.494;8.410;2023-09-19T11:14:30;21.50;99.90
28010;DHT22;15334;49.494;8.410;2023-09-19T11:20:22;21.30;99.90
28010;DHT22;15334;49.494;8.410;2023-09-19T11:23:31;21.30;99.90
28010;DHT22;15334;49.494;8.410;2023-09-19T11:26:39;21.40;99.90
28010;DHT22;15334;49.494;8.410;2023-09-19T11:29:26;21.50;99.90
28010;DHT22;15334;49.494;8.410;2023-09-19T11:31:55;21.70;99.90
28010;DHT22;15334;49.494;8.410;2023-09-19T11:34:39;21.80;99.90
28010;DHT22;15334;49.494;8.410;2023-09-19T11:40:29;22.10;99.90
28010;DHT22;15334;49.494;8.410;2023-09-19T11:42:59;21.90;99.90
28010;DHT22;15334;49.494;8.410;2023-09-19T11:46:05;21.80;99.90
28010;DHT22;15334;49.494;8.410;2023-09-19T11:48:35;21.90;99.90
28010;DHT22;15334;49.494;8.410;2023-09-19T11:51:12;22.00;99.90
28010;DHT22;15334;49.494;8.410;2023-09-19T11:53:46;22.10;99.90
28010;DHT22;15334;49.494;8.410;2023-09-19T11:56:17;22.30;99.90
28010;DHT22;15334;49.494;8.410;2023-09-19T11:58:46;22.50;99.90
28010;DHT22;15334;49.494;8.410;2023-09-19T12:01:23;22.50;99.90
28010;DHT22;15334;49.494;8.410;2023-09-19T12:03:54;22.70;99.90
28010;DHT22;15334;49.494;8.410;2023-09-19T12:06:25;23.00;99.90
28010;DHT22;15334;49.494;8.410;2023-09-19T12:08:54;23.20;99.90
28010;DHT22;15334;49.494;8.410;2023-09-19T12:11:27;23.30;99.90
28010;DHT22;15334;49.494;8.410;2023-09-19T12:13:56;23.30;99.90
28010;DHT22;15334;49.494;8.410;2023-09-19T12:16:27;23.30;99.90
28010;DHT22;15334;49.494;8.410;2023-09-19T12:18:57;23.30;99.90
28010;DHT22;15334;49.494;8.410;2023-09-19T12:21:52;23.20;99.90
28010;DHT22;15334;49.494;8.410;2023-09-19T12:24:21;23.30;99.90
28010;DHT22;15334;49.494;8.410;2023-09-19T12:26:51;23.60;99.90
28010;DHT22;15334;49.494;8.410;2023-09-19T12:29:22;23.90;99.90
28010;DHT22;15334;49.494;8.410;2023-09-19T12:31:52;24.20;99.90
28010;DHT22;15334;49.494;8.410;2023-09-19T12:34:23;24.60;99.90
28010;DHT22;15334;49.494;8.410;2023-09-19T12:37:04;25.10;99.90
28010;DHT22;15334;49.494;8.410;2023-09-19T12:39:39;26.50;99.90
28010;DHT22;15334;49.494;8.410;2023-09-19T12:42:09;27.80;99.20
28010;DHT22;15334;49.494;8.410;2023-09-19T12:44:44;28.00;98.00
28010;DHT22;15334;49.494;8.410;2023-09-19T12:47:14;28.70;96.00
28010;DHT22;15334;49.494;8.410;2023-09-19T12:50:06;29.00;94.70
28010;DHT22;15334;49.494;8.410;2023-09-19T12:52:41;29.10;94.10
28010;DHT22;15334;49.494;8.410;2023-09-19T12:55:20;28.70;94.20
28010;DHT22;15334;49.494;8.410;2023-09-19T12:58:08;29.00;94.60
28010;DHT22;15334;49.494;8.410;2023-09-19T13:00:39;29.50;93.40
28010;DHT22;15334;49.494;8.410;2023-09-19T13:03:12;30.10;92.90
28010;DHT22;15334;49.494;8.410;2023-09-19T13:05:51;30.50;92.10
28010;DHT22;15334;49.494;8.410;2023-09-19T13:08:23;30.40;91.00
28010;DHT22;15334;49.494;8.410;2023-09-19T13:11:06;29.90;91.00
28010;DHT22;15334;49.494;8.410;2023-09-19T13:13:38;29.30;91.20
28010;DHT22;15334;49.494;8.410;2023-09-19T13:16:08;28.30;93.20
28010;DHT22;15334;49.494;8.410;2023-09-19T13:18:43;27.40;93.30
28010;DHT22;15334;49.494;8.410;2023-09-19T13:21:13;26.50;94.40
28010;DHT22;15334;49.494;8.410;2023-09-19T13:23:51;25.90;97.70
28010;DHT22;15334;49.494;8.410;2023-09-19T13:26:19;25.50;95.90
28010;DHT22;15334;49.494;8.410;2023-09-19T13:28:47;25.20;96.50
28010;DHT22;15334;49.494;8.410;2023-09-19T13:31:17;24.90;96.90
28010;DHT22;15334;49.494;8.410;2023-09-19T13:33:47;24.50;96.90
28010;DHT22;15334;49.494;8.410;2023-09-19T13:36:17;24.30;98.20
28010;DHT22;15334;49.494;8.410;2023-09-19T13:38:45;24.30;98.10
28010;DHT22;15334;49.494;8.410;2023-09-19T13:41:15;24.30;99.90
28010;DHT22;15334;49.494;8.410;2023-09-19T13:43:44;24.20;98.40
28010;DHT22;15334;49.494;8.410;2023-09-19T13:46:15;24.10;98.80
28010;DHT22;15334;49.494;8.410;2023-09-19T13:48:46;24.10;99.90
28010;DHT22;15334;49.494;8.410;2023-09-19T13:51:14;24.20;99.90
28010;DHT22;15334;49.494;8.410;2023-09-19T13:53:42;24.20;99.80
28010;DHT22;15334;49.494;8.410;2023-09-19T13:56:10;24.00;98.70
28010;DHT22;15334;49.494;8.410;2023-09-19T13:58:38;23.90;99.50
28010;DHT22;15334;49.494;8.410;2023-09-19T14:01:09;23.80;99.30
28010;DHT22;15334;49.494;8.410;2023-09-19T14:03:40;23.80;99.90
28010;DHT22;15334;49.494;8.410;2023-09-19T14:06:14;23.60;99.40
28010;DHT22;15334;49.494;8.410;2023-09-19T14:11:11;23.10;99.90
28010;DHT22;15334;49.494;8.410;2023-09-19T14:13:39;23.10;99.90
28010;DHT22;15334;49.494;8.410;2023-09-19T14:16:07;23.00;99.90
28010;DHT22;15334;49.494;8.410;2023-09-19T14:18:36;23.00;99.90
28010;DHT22;15334;49.494;8.410;2023-09-19T14:21:04;23.10;99.90
28010;DHT22;15334;49.494;8.410;2023-09-19T14:23:36;23.00;99.90
28010;DHT22;15334;49.494;8.410;2023-09-19T14:26:05;23.10;99.90
28010;DHT22;15334;49.494;8.410;2023-09-19T14:28:33;23.10;99.90
28010;DHT22;15334;49.494;8.410;2023-09-19T14:31:05;23.10;99.90
28010;DHT22;15334;49.494;8.410;2023-09-19T14:33:34;23.10;99.90
28010;DHT22;15334;49.494;8.410;2023-09-19T14:36:03;23.10;99.90
28010;DHT22;15334;49.494;8.410;2023-09-19T14:38:33;23.10;99.90
28010;DHT22;15334;49.494;8.410;2023-09-19T14:41:03;23.10;99.90
28010;DHT22;15334;49.494;8.410;2023-09-19T14:43:32;23.20;99.90
28010;DHT22;15334;49.494;8.410;2023-09-19T14:46:03;23.20;99.90
28010;DHT22;15334;49.494;8.410;2023-09-19T14:48:31;23.20;99.90
28010;DHT22;15334;49.494;8.410;2023-09-19T14:51:02;23.10;99.90
28010;DHT22;15334;49.494;8.410;2023-09-19T14:53:31;23.00;99.90
28010;DHT22;15334;49.494;8.410;2023-09-19T14:56:00;22.90;99.90
28010;DHT22;15334;49.494;8.410;2023-09-19T14:58:31;22.90;99.90
28010;DHT22;15334;49.494;8.410;2023-09-19T15:01:04;22.90;99.90
28010;DHT22;15334;49.494;8.410;2023-09-19T15:03:35;22.90;99.90
28010;DHT22;15334;49.494;8.410;2023-09-19T15:06:27;22.80;99.90
28010;DHT22;15334;49.494;8.410;2023-09-19T15:08:55;22.80;99.90
28010;DHT22;15334;49.494;8.410;2023-09-19T15:11:26;22.80;99.90
28010;DHT22;15334;49.494;8.410;2023-09-19T15:13:56;22.90;99.90
28010;DHT22;15334;49.494;8.410;2023-09-19T15:16:25;23.00;99.90
28010;DHT22;15334;49.494;8.410;2023-09-19T15:18:54;23.00;99.90
28010;DHT22;15334;49.494;8.410;2023-09-19T15:21:22;23.00;99.90
28010;DHT22;15334;49.494;8.410;2023-09-19T15:24:05;23.00;99.90
28010;DHT22;15334;49.494;8.410;2023-09-19T15:26:36;22.90;99.90
28010;DHT22;15334;49.494;8.410;2023-09-19T15:29:07;22.90;99.90
28010;DHT22;15334;49.494;8.410;2023-09-19T15:31:36;22.90;99.90
28010;DHT22;15334;49.494;8.410;2023-09-19T15:34:05;22.90;99.90
28010;DHT22;15334;49.494;8.410;2023-09-19T15:36:34;22.80;99.90
28010;DHT22;15334;49.494;8.410;2023-09-19T15:39:04;22.70;99.90
28010;DHT22;15334;49.494;8.410;2023-09-19T15:41:34;22.60;99.90
28010;DHT22;15334;49.494;8.410;2023-09-19T15:44:10;22.50;99.90
28010;DHT22;15334;49.494;8.410;2023-09-19T15:46:46;22.50;99.90
28010;DHT22;15334;49.494;8.410;2023-09-19T15:49:15;22.50;99.90
28010;DHT22;15334;49.494;8.410;2023-09-19T15:51:43;22.50;99.90
28010;DHT22;15334;49.494;8.410;2023-09-19T15:54:12;22.40;99.90
28010;DHT22;15334;49.494;8.410;2023-09-19T15:56:41;22.50;99.90
28010;DHT22;15334;49.494;8.410;2023-09-19T15:59:10;22.50;99.90
28010;DHT22;15334;49.494;8.410;2023-09-19T16:01:39;22.60;99.90
28010;DHT22;15334;49.494;8.410;2023-09-19T16:04:11;22.60;99.90
28010;DHT22;15334;49.494;8.410;2023-09-19T16:06:42;22.60;99.90